sensor_id;sensor_type;location;lat;lon;timestamp;temperature;humidity
22185;DHT22;11258;52.516;13.318;2023-07-24T00:00:40;21.10;99.90
22185;DHT22;11258;52.516;13.318;2023-07-24T00:03:06;21.10;99.90
22185;DHT22;11258;52.516;13.318;2023-07-24T00:05:32;21.10;99.90
22185;DHT22;11258;52.516;13.318;2023-07-24T00:07:57;21.10;99.90
22185;DHT22;11258;52.516;13.318;2023-07-24T00:10:23;21.00;99.90
22185;DHT22;11258;52.516;13.318;2023-07-24T00:12:49;21.10;99.90
22185;DHT22;11258;52.516;13.318;2023-07-24T00:15:14;21.10;99.90
22185;DHT22;11258;52.516;13.318;2023-07-24T00:17:40;21.20;99.90
22185;DHT22;11258;52.516;13.318;2023-07-24T00:20:06;21.10;99.90
22185;DHT22;11258;52.516;13.318;2023-07-24T00:22:32;21.10;99.90
22185;DHT22;11258;52.516;13.318;2023-07-24T00:24:57;21.10;99.90
22185;DHT22;11258;52.516;13.318;2023-07-24T00:27:23;21.00;99.90
22185;DHT22;11258;52.516;13.318;2023-07-24T00:29:49;21.00;99.90
22185;DHT22;11258;52.516;13.318;2023-07-24T00:32:14;21.10;99.90
22185;DHT22;11258;52.516;13.318;2023-07-24T00:34:40;21.00;99.90
22185;DHT22;11258;52.516;13.318;2023-07-24T00:37:05;21.00;99.90
22185;DHT22;11258;52.516;13.318;2023-07-24T00:39:31;21.00;99.90
22185;DHT22;11258;52.516;13.318;2023-07-24T00:41:57;21.00;99.90
22185;DHT22;11258;52.516;13.318;2023-07-24T00:44:22;21.00;99.90
22185;DHT22;11258;52.516;13.318;2023-07-24T00:46:48;21.00;99.90
22185;DHT22;11258;52.516;13.318;2023-07-24T00:49:14;20.90;99.90
22185;DHT22;11258;52.516;13.318;2023-07-24T00:51:40;21.00;99.90
22185;DHT22;11258;52.516;13.318;2023-07-24T00:54:06;20.90;99.90
22185;DHT22;11258;52.516;13.318;2023-07-24T00:56:32;20.90;99.90
22185;DHT22;11258;52.516;13.318;2023-07-24T00:58:59;20.90;99.90
22185;DHT22;11258;52.516;13.318;2023-07-24T01:01:26;20.80;99.90
22185;DHT22;11258;52.516;13.318;2023-07-24T01:03:52;20.80;99.90
22185;DHT22;11258;52.516;13.318;2023-07-24T01:06:18;20.80;99.90
22185;DHT22;11258;52.516;13.318;2023-07-24T01:08:43;20.80;99.90
22185;DHT22;11258;52.516;13.318;2023-07-24T01:11:18;20.90;99.90
22185;DHT22;11258;52.516;13.318;2023-07-24T01:13:59;20.80;99.90
22185;DHT22;11258;52.516;13.318;2023-07-24T01:16:35;20.70;99.90
22185;DHT22;11258;52.516;13.318;2023-07-24T01:19:11;20.70;99.90
22185;DHT22;11258;52.516;13.318;2023-07-24T01:25:05;20.80;99.90
22185;DHT22;11258;52.516;13.318;2023-07-24T01:27:34;20.70;99.90
22185;DHT22;11258;52.516;13.318;2023-07-24T01:30:00;20.70;99.90
22185;DHT22;11258;52.516;13.318;2023-07-24T01:32:26;20.70;99.90
22185;DHT22;11258;52.516;13.318;2023-07-24T01:34:52;20.70;99.90
22185;DHT22;11258;52.516;13.318;2023-07-24T01:37:19;20.70;99.90
22185;DHT22;11258;52.516;13.318;2023-07-24T01:39:46;20.80;99.90
22185;DHT22;11258;52.516;13.318;2023-07-24T01:42:13;20.80;99.90
22185;DHT22;11258;52.516;13.318;2023-07-24T01:44:39;20.80;99.90
22185;DHT22;11258;52.516;13.318;2023-07-24T01:47:05;20.70;99.90
22185;DHT22;11258;52.516;13.318;2023-07-24T01:49:30;20.80;99.90
22185;DHT22;11258;52.516;13.318;2023-07-24T01:51:56;20.80;99.90
22185;DHT22;11258;52.516;13.318;2023-07-24T01:54:23;20.80;99.90
22185;DHT22;11258;52.516;13.318;2023-07-24T01:56:48;20.70;99.90
22185;DHT22;11258;52.516;13.318;2023-07-24T01:59:14;20.70;99.90
22185;DHT22;11258;52.516;13.318;2023-07-24T02:01:40;20.70;99.90
22185;DHT22;11258;52.516;13.318;2023-07-24T02:04:06;20.70;99.90
22185;DHT22;11258;52.516;13.318;2023-07-24T02:06:32;20.70;99.90
22185;DHT22;11258;52.516;13.318;2023-07-24T02:08:57;20.70;99.90
22185;DHT22;11258;52.516;13.318;2023-07-24T02:11:23;20.80;99.90
22185;DHT22;11258;52.516;13.318;2023-07-24T02:13:48;20.80;99.90
22185;DHT22;11258;52.516;13.318;2023-07-24T02:16:14;20.70;99.90
22185;DHT22;11258;52.516;13.318;2023-07-24T02:18:42;20.80;99.90
22185;DHT22;11258;52.516;13.318;2023-07-24T02:21:08;20.80;99.90
22185;DHT22;11258;52.516;13.318;2023-07-24T02:23:33;20.80;99.90
22185;DHT22;11258;52.516;13.318;2023-07-24T02:26:00;20.80;99.90
22185;DHT22;11258;52.516;13.318;2023-07-24T02:28:26;20.60;99.90
22185;DHT22;11258;52.516;13.318;2023-07-24T02:30:52;20.60;99.90
22185;DHT22;11258;52.516;13.318;2023-07-24T02:33:21;20.60;99.90
22185;DHT22;11258;52.516;13.318;2023-07-24T02:35:48;20.70;99.90
22185;DHT22;11258;52.516;13.318;2023-07-24T02:38:14;20.50;99.90
22185;DHT22;11258;52.516;13.318;2023-07-24T02:40:41;20.60;99.90
22185;DHT22;11258;52.516;13.318;2023-07-24T02:43:06;20.70;99.90
22185;DHT22;11258;52.516;13.318;2023-07-24T02:45:36;20.70;99.90
22185;DHT22;11258;52.516;13.318;2023-07-24T02:48:02;20.70;99.90
22185;DHT22;11258;52.516;13.318;2023-07-24T02:50:28;20.70;99.90
22185;DHT22;11258;52.516;13.318;2023-07-24T02:52:54;20.80;99.90
22185;DHT22;11258;52.516;13.318;2023-07-24T02:55:19;20.70;99.90
22185;DHT22;11258;52.516;13.318;2023-07-24T02:57:45;20.70;99.90
22185;DHT22;11258;52.516;13.318;2023-07-24T03:00:11;20.70;99.90
22185;DHT22;11258;52.516;13.318;2023-07-24T03:02:38;20.80;99.90
22185;DHT22;11258;52.516;13.318;2023-07-24T03:05:04;20.80;99.90
22185;DHT22;11258;52.516;13.318;2023-07-24T03:07:30;20.70;99.90
22185;DHT22;11258;52.516;13.318;2023-07-24T03:09:55;20.80;99.90
22185;DHT22;11258;52.516;13.318;2023-07-24T03:12:21;20.70;99.90
22185;DHT22;11258;52.516;13.318;2023-07-24T03:14:47;20.70;99.90
22185;DHT22;11258;52.516;13.318;2023-07-24T03:17:13;20.70;99.90
22185;DHT22;11258;52.516;13.318;2023-07-24T03:19:39;20.80;99.90
22185;DHT22;11258;52.516;13.318;2023-07-24T03:22:05;20.70;99.90
22185;DHT22;11258;52.516;13.318;2023-07-24T03:24:31;20.70;99.90
22185;DHT22;11258;52.516;13.318;2023-07-24T03:26:56;20.70;99.90
22185;DHT22;11258;52.516;13.318;2023-07-24T03:29:22;20.70;99.90
22185;DHT22;11258;52.516;13.318;2023-07-24T03:31:47;20.70;99.90
22185;DHT22;11258;52.516;13.318;2023-07-24T03:34:13;20.70;99.90
22185;DHT22;11258;52.516;13.318;2023-07-24T03:36:39;20.70;99.90
22185;DHT22;11258;52.516;13.318;2023-07-24T03:39:07;20.70;99.90
22185;DHT22;11258;52.516;13.318;2023-07-24T03:41:32;20.70;99.90
22185;DHT22;11258;52.516;13.318;2023-07-24T03:43:58;20.80;99.90
22185;DHT22;11258;52.516;13.318;2023-07-24T03:46:24;20.80;99.90
22185;DHT22;11258;52.516;13.318;2023-07-24T03:48:50;20.80;99.90
22185;DHT22;11258;52.516;13.318;2023-07-24T03:51:16;20.80;99.90
22185;DHT22;11258;52.516;13.318;2023-07-24T03:53:41;20.90;99.90
22185;DHT22;11258;52.516;13.318;2023-07-24T03:56:07;20.80;99.90
22185;DHT22;11258;52.516;13.318;2023-07-24T03:58:33;20.90;99.90
22185;DHT22;11258;52.516;13.318;2023-07-24T04:00:59;20.80;99.90
22185;DHT22;11258;52.516;13.318;2023-07-24T04:03:24;20.80;99.90
22185;DHT22;11258;52.516;13.318;2023-07-24T04:05:50;20.80;99.90
22185;DHT22;11258;52.516;13.318;2023-07-24T04:08:16;20.80;99.90
22185;DHT22;11258;52.516;13.318;2023-07-24T04:10:41;20.80;99.90
22185;DHT22;11258;52.516;13.318;2023-07-24T04:13:07;20.80;99.90
22185;DHT22;11258;52.516;13.318;2023-07-24T04:15:32;20.80;99.90
22185;DHT22;11258;52.516;13.318;2023-07-24T04:17:58;20.80;99.90
22185;DHT22;11258;52.516;13.318;2023-07-24T04:20:23;20.90;99.90
22185;DHT22;11258;52.516;13.318;2023-07-24T04:22:49;21.00;99.90
22185;DHT22;11258;52.516;13.318;2023-07-24T04:25:15;21.10;99.90
22185;DHT22;11258;52.516;13.318;2023-07-24T04:27:41;21.10;99.90
22185;DHT22;11258;52.516;13.318;2023-07-24T04:30:07;21.10;99.90
22185;DHT22;11258;52.516;13.318;2023-07-24T04:32:33;21.20;99.90
22185;DHT22;11258;52.516;13.318;2023-07-24T04:34:58;21.10;99.90
22185;DHT22;11258;52.516;13.318;2023-07-24T04:37:24;21.10;99.90
22185;DHT22;11258;52.516;13.318;2023-07-24T04:39:49;21.10;99.90
22185;DHT22;11258;52.516;13.318;2023-07-24T04:42:15;21.10;99.90
22185;DHT22;11258;52.516;13.318;2023-07-24T04:44:41;21.20;99.90
22185;DHT22;11258;52.516;13.318;2023-07-24T04:47:06;21.30;99.90
22185;DHT22;11258;52.516;13.318;2023-07-24T04:49:32;21.40;99.90
22185;DHT22;11258;52.516;13.318;2023-07-24T04:51:59;21.40;99.90
22185;DHT22;11258;52.516;13.318;2023-07-24T04:54:24;21.50;99.90
22185;DHT22;11258;52.516;13.318;2023-07-24T04:56:50;21.50;99.90
22185;DHT22;11258;52.516;13.318;2023-07-24T04:59:16;21.50;99.90
22185;DHT22;11258;52.516;13.318;2023-07-24T05:01:42;21.70;99.90
22185;DHT22;11258;52.516;13.318;2023-07-24T05:04:08;21.80;99.90
22185;DHT22;11258;52.516;13.318;2023-07-24T05:06:33;21.80;99.90
22185;DHT22;11258;52.516;13.318;2023-07-24T05:09:01;21.90;99.90
22185;DHT22;11258;52.516;13.318;2023-07-24T05:11:26;22.10;99.90
22185;DHT22;11258;52.516;13.318;2023-07-24T05:13:52;23.10;99.90
22185;DHT22;11258;52.516;13.318;2023-07-24T05:16:18;25.70;99.90
22185;DHT22;11258;52.516;13.318;2023-07-24T05:18:43;27.10;99.90
22185;DHT22;11258;52.516;13.318;2023-07-24T05:21:09;28.70;99.90
22185;DHT22;11258;52.516;13.318;2023-07-24T05:23:35;29.90;99.90
22185;DHT22;11258;52.516;13.318;2023-07-24T05:26:02;31.20;99.90
22185;DHT22;11258;52.516;13.318;2023-07-24T05:28:29;30.50;99.90
22185;DHT22;11258;52.516;13.318;2023-07-24T05:30:54;29.40;99.90
22185;DHT22;11258;52.516;13.318;2023-07-24T05:33:21;28.10;99.90
22185;DHT22;11258;52.516;13.318;2023-07-24T05:35:48;27.30;99.90
22185;DHT22;11258;52.516;13.318;2023-07-24T05:38:15;26.70;99.90
22185;DHT22;11258;52.516;13.318;2023-07-24T05:40:40;26.20;99.90
22185;DHT22;11258;52.516;13.318;2023-07-24T05:43:06;26.00;99.90
22185;DHT22;11258;52.516;13.318;2023-07-24T05:45:31;25.60;99.90
22185;DHT22;11258;52.516;13.318;2023-07-24T05:47:57;25.60;99.90
22185;DHT22;11258;52.516;13.318;2023-07-24T05:50:23;26.40;99.90
22185;DHT22;11258;52.516;13.318;2023-07-24T05:52:48;26.70;99.90
22185;DHT22;11258;52.516;13.318;2023-07-24T05:55:14;26.80;99.90
22185;DHT22;11258;52.516;13.318;2023-07-24T05:57:39;27.80;99.90
22185;DHT22;11258;52.516;13.318;2023-07-24T06:00:06;28.70;99.90
22185;DHT22;11258;52.516;13.318;2023-07-24T06:02:32;29.80;99.90
22185;DHT22;11258;52.516;13.318;2023-07-24T06:04:57;30.00;99.90
22185;DHT22;11258;52.516;13.318;2023-07-24T06:07:23;30.00;99.90
22185;DHT22;11258;52.516;13.318;2023-07-24T06:09:49;30.80;99.90
22185;DHT22;11258;52.516;13.318;2023-07-24T06:12:14;31.00;99.90
22185;DHT22;11258;52.516;13.318;2023-07-24T06:14:40;30.00;99.90
22185;DHT22;11258;52.516;13.318;2023-07-24T06:17:05;30.90;99.90
22185;DHT22;11258;52.516;13.318;2023-07-24T06:19:31;31.90;99.90
22185;DHT22;11258;52.516;13.318;2023-07-24T06:21:57;32.60;99.90
22185;DHT22;11258;52.516;13.318;2023-07-24T06:24:22;33.20;99.90
22185;DHT22;11258;52.516;13.318;2023-07-24T06:26:49;33.70;99.90
22185;DHT22;11258;52.516;13.318;2023-07-24T06:29:15;34.40;99.90
22185;DHT22;11258;52.516;13.318;2023-07-24T06:31:41;35.00;99.90
22185;DHT22;11258;52.516;13.318;2023-07-24T06:34:06;35.50;99.90
22185;DHT22;11258;52.516;13.318;2023-07-24T06:36:32;35.80;98.50
22185;DHT22;11258;52.516;13.318;2023-07-24T06:38:58;35.90;96.80
22185;DHT22;11258;52.516;13.318;2023-07-24T06:41:24;36.50;95.60
22185;DHT22;11258;52.516;13.318;2023-07-24T06:43:50;36.40;94.90
22185;DHT22;11258;52.516;13.318;2023-07-24T06:46:16;36.50;93.90
22185;DHT22;11258;52.516;13.318;2023-07-24T06:48:42;36.90;93.30
22185;DHT22;11258;52.516;13.318;2023-07-24T06:51:08;37.00;92.20
22185;DHT22;11258;52.516;13.318;2023-07-24T06:53:33;37.60;91.40
22185;DHT22;11258;52.516;13.318;2023-07-24T06:55:59;37.30;90.60
22185;DHT22;11258;52.516;13.318;2023-07-24T06:58:24;36.30;90.80
22185;DHT22;11258;52.516;13.318;2023-07-24T07:00:50;35.40;92.40
22185;DHT22;11258;52.516;13.318;2023-07-24T07:03:16;36.10;91.90
22185;DHT22;11258;52.516;13.318;2023-07-24T07:05:41;36.70;91.00
22185;DHT22;11258;52.516;13.318;2023-07-24T07:08:07;37.70;88.80
22185;DHT22;11258;52.516;13.318;2023-07-24T07:10:33;37.90;87.90
22185;DHT22;11258;52.516;13.318;2023-07-24T07:12:58;38.50;85.70
22185;DHT22;11258;52.516;13.318;2023-07-24T07:15:24;38.70;85.10
22185;DHT22;11258;52.516;13.318;2023-07-24T07:17:49;38.70;82.90
22185;DHT22;11258;52.516;13.318;2023-07-24T07:20:15;38.80;81.70
22185;DHT22;11258;52.516;13.318;2023-07-24T07:22:41;38.70;81.30
22185;DHT22;11258;52.516;13.318;2023-07-24T07:25:07;39.20;79.20
22185;DHT22;11258;52.516;13.318;2023-07-24T07:27:32;39.00;78.80
22185;DHT22;11258;52.516;13.318;2023-07-24T07:29:58;38.50;78.60
22185;DHT22;11258;52.516;13.318;2023-07-24T07:32:24;39.00;78.70
22185;DHT22;11258;52.516;13.318;2023-07-24T07:34:50;39.50;76.70
22185;DHT22;11258;52.516;13.318;2023-07-24T07:37:16;39.20;76.40
22185;DHT22;11258;52.516;13.318;2023-07-24T07:39:41;39.00;76.20
22185;DHT22;11258;52.516;13.318;2023-07-24T07:42:07;38.80;76.10
22185;DHT22;11258;52.516;13.318;2023-07-24T07:44:32;39.20;75.50
22185;DHT22;11258;52.516;13.318;2023-07-24T07:46:58;38.90;75.90
22185;DHT22;11258;52.516;13.318;2023-07-24T07:49:24;38.60;76.50
22185;DHT22;11258;52.516;13.318;2023-07-24T07:51:49;39.20;75.60
22185;DHT22;11258;52.516;13.318;2023-07-24T07:54:15;39.50;74.20
22185;DHT22;11258;52.516;13.318;2023-07-24T07:56:41;39.50;73.70
22185;DHT22;11258;52.516;13.318;2023-07-24T07:59:07;39.10;73.70
22185;DHT22;11258;52.516;13.318;2023-07-24T08:01:33;39.00;74.00
22185;DHT22;11258;52.516;13.318;2023-07-24T08:03:59;38.60;74.00
22185;DHT22;11258;52.516;13.318;2023-07-24T08:06:24;38.30;73.60
22185;DHT22;11258;52.516;13.318;2023-07-24T08:08:50;38.10;74.30
22185;DHT22;11258;52.516;13.318;2023-07-24T08:11:16;36.30;75.80
22185;DHT22;11258;52.516;13.318;2023-07-24T08:13:42;35.50;78.70
22185;DHT22;11258;52.516;13.318;2023-07-24T08:16:14;35.00;80.60
22185;DHT22;11258;52.516;13.318;2023-07-24T08:18:47;34.80;81.90
22185;DHT22;11258;52.516;13.318;2023-07-24T08:21:14;35.20;81.60
22185;DHT22;11258;52.516;13.318;2023-07-24T08:23:40;35.80;80.50
22185;DHT22;11258;52.516;13.318;2023-07-24T08:26:06;36.60;78.90
22185;DHT22;11258;52.516;13.318;2023-07-24T08:28:33;36.00;78.60
22185;DHT22;11258;52.516;13.318;2023-07-24T08:31:00;35.90;79.40
22185;DHT22;11258;52.516;13.318;2023-07-24T08:33:28;34.50;81.60
22185;DHT22;11258;52.516;13.318;2023-07-24T08:36:07;34.00;83.30
22185;DHT22;11258;52.516;13.318;2023-07-24T08:38:34;33.20;83.20
22185;DHT22;11258;52.516;13.318;2023-07-24T08:41:20;32.20;86.10
22185;DHT22;11258;52.516;13.318;2023-07-24T08:43:46;31.40;88.30
22185;DHT22;11258;52.516;13.318;2023-07-24T08:46:11;30.50;90.70
22185;DHT22;11258;52.516;13.318;2023-07-24T08:48:39;31.00;91.60
22185;DHT22;11258;52.516;13.318;2023-07-24T08:51:10;31.60;90.40
22185;DHT22;11258;52.516;13.318;2023-07-24T08:53:38;31.50;90.30
22185;DHT22;11258;52.516;13.318;2023-07-24T08:56:05;31.10;90.70
22185;DHT22;11258;52.516;13.318;2023-07-24T08:58:32;31.50;91.00
22185;DHT22;11258;52.516;13.318;2023-07-24T09:00:59;31.70;90.90
22185;DHT22;11258;52.516;13.318;2023-07-24T09:03:25;31.20;91.10
22185;DHT22;11258;52.516;13.318;2023-07-24T09:05:50;31.40;91.00
22185;DHT22;11258;52.516;13.318;2023-07-24T09:08:16;32.50;90.60
22185;DHT22;11258;52.516;13.318;2023-07-24T09:10:42;33.10;90.00
22185;DHT22;11258;52.516;13.318;2023-07-24T09:13:11;33.10;89.00
22185;DHT22;11258;52.516;13.318;2023-07-24T09:15:44;33.90;88.20
22185;DHT22;11258;52.516;13.318;2023-07-24T09:18:10;34.70;86.70
22185;DHT22;11258;52.516;13.318;2023-07-24T09:20:43;34.50;86.90
22185;DHT22;11258;52.516;13.318;2023-07-24T09:23:10;34.30;86.80
22185;DHT22;11258;52.516;13.318;2023-07-24T09:25:37;34.80;86.60
22185;DHT22;11258;52.516;13.318;2023-07-24T09:28:14;35.10;85.00
22185;DHT22;11258;52.516;13.318;2023-07-24T09:30:40;35.70;83.80
22185;DHT22;11258;52.516;13.318;2023-07-24T09:33:07;35.50;82.70
22185;DHT22;11258;52.516;13.318;2023-07-24T09:35:33;34.50;83.80
22185;DHT22;11258;52.516;13.318;2023-07-24T09:38:07;34.00;85.10
22185;DHT22;11258;52.516;13.318;2023-07-24T09:40:44;33.80;86.30
22185;DHT22;11258;52.516;13.318;2023-07-24T09:43:24;33.70;87.20
22185;DHT22;11258;52.516;13.318;2023-07-24T09:45:51;33.20;87.60
22185;DHT22;11258;52.516;13.318;2023-07-24T09:48:18;32.10;89.30
22185;DHT22;11258;52.516;13.318;2023-07-24T09:50:48;31.40;91.00
22185;DHT22;11258;52.516;13.318;2023-07-24T09:53:24;31.50;91.40
22185;DHT22;11258;52.516;13.318;2023-07-24T09:56:03;31.30;91.70
22185;DHT22;11258;52.516;13.318;2023-07-24T09:58:31;31.80;91.80
22185;DHT22;11258;52.516;13.318;2023-07-24T10:00:57;32.20;91.20
22185;DHT22;11258;52.516;13.318;2023-07-24T10:03:23;31.80;91.20
22185;DHT22;11258;52.516;13.318;2023-07-24T10:05:49;32.40;91.20
22185;DHT22;11258;52.516;13.318;2023-07-24T10:08:18;33.00;90.40
22185;DHT22;11258;52.516;13.318;2023-07-24T10:10:45;32.50;90.40
22185;DHT22;11258;52.516;13.318;2023-07-24T10:13:12;32.50;90.30
22185;DHT22;11258;52.516;13.318;2023-07-24T10:15:43;32.40;89.10
22185;DHT22;11258;52.516;13.318;2023-07-24T10:18:10;31.90;90.60
22185;DHT22;11258;52.516;13.318;2023-07-24T10:20:41;32.00;90.80
22185;DHT22;11258;52.516;13.318;2023-07-24T10:23:09;32.20;91.30
22185;DHT22;11258;52.516;13.318;2023-07-24T10:25:38;32.40;90.70
22185;DHT22;11258;52.516;13.318;2023-07-24T10:28:11;31.40;90.90
22185;DHT22;11258;52.516;13.318;2023-07-24T10:30:38;30.90;91.70
22185;DHT22;11258;52.516;13.318;2023-07-24T10:33:13;30.60;92.00
22185;DHT22;11258;52.516;13.318;2023-07-24T10:35:54;30.50;92.20
22185;DHT22;11258;52.516;13.318;2023-07-24T10:38:39;31.20;92.10
22185;DHT22;11258;52.516;13.318;2023-07-24T10:41:07;30.90;92.00
22185;DHT22;11258;52.516;13.318;2023-07-24T10:43:42;30.60;92.10
22185;DHT22;11258;52.516;13.318;2023-07-24T10:46:09;30.40;91.90
22185;DHT22;11258;52.516;13.318;2023-07-24T10:48:35;30.90;91.90
22185;DHT22;11258;52.516;13.318;2023-07-24T10:51:06;31.20;91.40
22185;DHT22;11258;52.516;13.318;2023-07-24T10:53:35;31.00;91.40
22185;DHT22;11258;52.516;13.318;2023-07-24T10:56:02;31.10;91.40
22185;DHT22;11258;52.516;13.318;2023-07-24T10:58:27;31.30;91.20
22185;DHT22;11258;52.516;13.318;2023-07-24T11:00:53;31.80;90.90
22185;DHT22;11258;52.516;13.318;2023-07-24T11:03:19;31.70;90.60
22185;DHT22;11258;52.516;13.318;2023-07-24T11:05:46;31.80;90.10
22185;DHT22;11258;52.516;13.318;2023-07-24T11:08:13;31.80;90.00
22185;DHT22;11258;52.516;13.318;2023-07-24T11:10:52;31.50;90.10
22185;DHT22;11258;52.516;13.318;2023-07-24T11:13:21;31.80;90.20
22185;DHT22;11258;52.516;13.318;2023-07-24T11:15:48;31.70;89.30
22185;DHT22;11258;52.516;13.318;2023-07-24T11:18:14;31.60;89.40
22185;DHT22;11258;52.516;13.318;2023-07-24T11:20:50;31.00;89.60
22185;DHT22;11258;52.516;13.318;2023-07-24T11:23:16;30.80;90.20
22185;DHT22;11258;52.516;13.318;2023-07-24T11:25:43;30.80;90.70
22185;DHT22;11258;52.516;13.318;2023-07-24T11:28:10;30.70;90.10
22185;DHT22;11258;52.516;13.318;2023-07-24T11:30:37;30.60;90.40
22185;DHT22;11258;52.516;13.318;2023-07-24T11:33:04;30.70;90.30
22185;DHT22;11258;52.516;13.318;2023-07-24T11:35:30;31.00;90.30
22185;DHT22;11258;52.516;13.318;2023-07-24T11:37:56;31.00;90.10
22185;DHT22;11258;52.516;13.318;2023-07-24T11:40:37;30.70;90.60
22185;DHT22;11258;52.516;13.318;2023-07-24T11:43:03;31.00;90.50
22185;DHT22;11258;52.516;13.318;2023-07-24T11:45:30;31.10;90.40
22185;DHT22;11258;52.516;13.318;2023-07-24T11:47:56;31.10;90.30
22185;DHT22;11258;52.516;13.318;2023-07-24T11:50:23;30.90;90.50
22185;DHT22;11258;52.516;13.318;2023-07-24T11:52:51;31.00;90.70
22185;DHT22;11258;52.516;13.318;2023-07-24T11:55:19;30.80;90.30
22185;DHT22;11258;52.516;13.318;2023-07-24T11:58:01;30.70;90.80
22185;DHT22;11258;52.516;13.318;2023-07-24T12:00:27;30.60;91.00
22185;DHT22;11258;52.516;13.318;2023-07-24T12:02:58;30.30;91.00
22185;DHT22;11258;52.516;13.318;2023-07-24T12:05:24;30.00;91.50
22185;DHT22;11258;52.516;13.318;2023-07-24T12:07:53;29.70;91.90
22185;DHT22;11258;52.516;13.318;2023-07-24T12:10:27;29.50;92.20
22185;DHT22;11258;52.516;13.318;2023-07-24T12:12:53;29.40;92.60
22185;DHT22;11258;52.516;13.318;2023-07-24T12:15:19;29.20;92.80
22185;DHT22;11258;52.516;13.318;2023-07-24T12:17:45;28.80;94.70
22185;DHT22;11258;52.516;13.318;2023-07-24T12:20:10;28.00;99.70
22185;DHT22;11258;52.516;13.318;2023-07-24T12:22:37;27.40;99.90
22185;DHT22;11258;52.516;13.318;2023-07-24T12:25:04;27.00;99.90
22185;DHT22;11258;52.516;13.318;2023-07-24T12:27:30;26.70;99.90
22185;DHT22;11258;52.516;13.318;2023-07-24T12:29:57;26.60;99.90
22185;DHT22;11258;52.516;13.318;2023-07-24T12:32:22;26.40;99.90
22185;DHT22;11258;52.516;13.318;2023-07-24T12:34:50;26.30;99.90
22185;DHT22;11258;52.516;13.318;2023-07-24T12:37:16;26.30;99.90
22185;DHT22;11258;52.516;13.318;2023-07-24T12:39:43;26.40;99.90
22185;DHT22;11258;52.516;13.318;2023-07-24T12:42:10;26.40;99.90
22185;DHT22;11258;52.516;13.318;2023-07-24T12:44:36;26.40;99.90
22185;DHT22;11258;52.516;13.318;2023-07-24T12:47:03;26.50;99.90
22185;DHT22;11258;52.516;13.318;2023-07-24T12:49:29;26.60;99.90
22185;DHT22;11258;52.516;13.318;2023-07-24T12:51:54;26.70;99.90
22185;DHT22;11258;52.516;13.318;2023-07-24T12:54:20;26.90;99.90
22185;DHT22;11258;52.516;13.318;2023-07-24T12:56:47;26.80;99.90
22185;DHT22;11258;52.516;13.318;2023-07-24T12:59:13;26.90;99.90
22185;DHT22;11258;52.516;13.318;2023-07-24T13:01:38;26.90;99.90
22185;DHT22;11258;52.516;13.318;2023-07-24T13:04:04;26.80;99.90
22185;DHT22;11258;52.516;13.318;2023-07-24T13:06:30;26.80;99.90
22185;DHT22;11258;52.516;13.318;2023-07-24T13:08:55;26.70;99.90
22185;DHT22;11258;52.516;13.318;2023-07-24T13:11:21;26.70;99.90
22185;DHT22;11258;52.516;13.318;2023-07-24T13:13:47;26.70;99.90
22185;DHT22;11258;52.516;13.318;2023-07-24T13:16:13;26.70;99.90
22185;DHT22;11258;52.516;13.318;2023-07-24T13:18:38;26.80;99.90
22185;DHT22;11258;52.516;13.318;2023-07-24T13:21:04;27.00;99.90
22185;DHT22;11258;52.516;13.318;2023-07-24T13:23:32;27.00;99.90
22185;DHT22;11258;52.516;13.318;2023-07-24T13:25:57;27.30;99.90
22185;DHT22;11258;52.516;13.318;2023-07-24T13:28:23;27.60;99.90
22185;DHT22;11258;52.516;13.318;2023-07-24T13:30:49;28.00;99.90
22185;DHT22;11258;52.516;13.318;2023-07-24T13:33:14;28.10;99.90
22185;DHT22;11258;52.516;13.318;2023-07-24T13:35:40;28.30;99.90
22185;DHT22;11258;52.516;13.318;2023-07-24T13:38:05;28.30;99.90
22185;DHT22;11258;52.516;13.318;2023-07-24T13:40:36;28.20;99.90
22185;DHT22;11258;52.516;13.318;2023-07-24T13:43:02;28.30;99.90
22185;DHT22;11258;52.516;13.318;2023-07-24T13:45:29;28.50;99.90
22185;DHT22;11258;52.516;13.318;2023-07-24T13:47:56;28.60;99.90
22185;DHT22;11258;52.516;13.318;2023-07-24T13:50:21;28.60;99.90
22185;DHT22;11258;52.516;13.318;2023-07-24T13:52:47;28.70;99.90
22185;DHT22;11258;52.516;13.318;2023-07-24T13:55:13;28.70;99.90
22185;DHT22;11258;52.516;13.318;2023-07-24T13:57:39;28.70;99.90
22185;DHT22;11258;52.516;13.318;2023-07-24T14:00:05;28.80;99.90
22185;DHT22;11258;52.516;13.318;2023-07-24T14:02:31;28.70;99.90
22185;DHT22;11258;52.516;13.318;2023-07-24T14:04:57;28.70;99.90
22185;DHT22;11258;52.516;13.318;2023-07-24T14:07:22;28.60;99.90
22185;DHT22;11258;52.516;13.318;2023-07-24T14:09:48;28.50;99.90
22185;DHT22;11258;52.516;13.318;2023-07-24T14:12:13;28.30;99.90
22185;DHT22;11258;52.516;13.318;2023-07-24T14:14:39;28.10;99.90
22185;DHT22;11258;52.516;13.318;2023-07-24T14:17:05;27.90;99.90
22185;DHT22;11258;52.516;13.318;2023-07-24T14:19:30;27.80;99.90
22185;DHT22;11258;52.516;13.318;2023-07-24T14:21:56;27.80;99.90
22185;DHT22;11258;52.516;13.318;2023-07-24T14:24:22;27.90;99.90
22185;DHT22;11258;52.516;13.318;2023-07-24T14:26:47;27.90;99.90
22185;DHT22;11258;52.516;13.318;2023-07-24T14:29:13;28.00;99.90
22185;DHT22;11258;52.516;13.318;2023-07-24T14:31:45;28.00;99.90
22185;DHT22;11258;52.516;13.318;2023-07-24T14:34:10;28.00;99.90
22185;DHT22;11258;52.516;13.318;2023-07-24T14:36:38;27.90;99.90
22185;DHT22;11258;52.516;13.318;2023-07-24T14:39:04;27.70;99.90
22185;DHT22;11258;52.516;13.318;2023-07-24T14:41:30;27.60;99.90
22185;DHT22;11258;52.516;13.318;2023-07-24T14:43:56;27.60;99.90
22185;DHT22;11258;52.516;13.318;2023-07-24T14:46:22;27.40;99.90
22185;DHT22;11258;52.516;13.318;2023-07-24T14:48:49;27.40;99.90
22185;DHT22;11258;52.516;13.318;2023-07-24T14:51:14;27.30;99.90
22185;DHT22;11258;52.516;13.318;2023-07-24T14:53:40;27.20;99.90
22185;DHT22;11258;52.516;13.318;2023-07-24T14:56:06;27.20;99.90
22185;DHT22;11258;52.516;13.318;2023-07-24T14:58:31;27.10;99.90
22185;DHT22;11258;52.516;13.318;2023-07-24T15:00:57;27.10;99.90
22185;DHT22;11258;52.516;13.318;2023-07-24T15:03:23;26.90;99.90
22185;DHT22;11258;52.516;13.318;2023-07-24T15:05:49;26.90;99.90
22185;DHT22;11258;52.516;13.318;2023-07-24T15:08:14;26.90;99.90
22185;DHT22;11258;52.516;13.318;2023-07-24T15:10:40;27.00;99.90
22185;DHT22;11258;52.516;13.318;2023-07-24T15:13:06;27.10;99.90
22185;DHT22;11258;52.516;13.318;2023-07-24T15:15:32;27.20;99.90